Time;durP1;ratioP1;P1;durP2;ratioP2;P2;SDS_P1;SDS_P2;PMS_P1;PMS_P2;Temp;Humidity;BMP_temperature;BMP_pressure;BME280_temperature;BME280_humidity;BME280_pressure;Samples;Min_cycle;Max_cycle;Signal;HPM_P1;HPM_P2
2023/03/31 00:01:53;;;;;;;4.68;2.15;;;;;;;;;;5026641;28;20099;-68
2023/03/31 00:04:22;;;;;;;8.02;2.50;;;;;;;;;;5026247;28;20406;-68
2023/03/31 00:06:52;;;;;;;4.82;2.28;;;;;;;;;;5026551;28;20490;-68
2023/03/31 00:09:20;;;;;;;4.15;2.17;;;;;;;;;;5026527;28;20050;-68
2023/03/31 00:11:48;;;;;;;10.77;3.00;;;;;;;;;;5026479;28;20081;-68
2023/03/31 00:14:16;;;;;;;9.13;3.63;;;;;;;;;;5026074;28;20052;-68
2023/03/31 00:16:43;;;;;;;5.75;2.92;;;;;;;;;;5026326;28;20049;-68
2023/03/31 00:19:16;;;;;;;8.25;3.22;;;;;;;;;;5025888;28;20095;-68
2023/03/31 00:21:43;;;;;;;;;;;;;;;;;;5012089;28;20056;-68
2023/03/31 00:24:12;;;;;;;7.45;2.78;;;;;;;;;;5009994;28;19969;-68
2023/03/31 00:26:39;;;;;;;3.53;2.05;;;;;;;;;;5010296;28;20538;-68
2023/03/31 00:29:07;;;;;;;8.02;2.42;;;;;;;;;;5009113;28;20081;-68
2023/03/31 00:31:34;;;;;;;6.97;2.55;;;;;;;;;;5010205;28;20096;-67
2023/03/31 00:34:01;;;;;;;8.38;2.35;;;;;;;;;;5009537;28;20263;-68
2023/03/31 00:36:28;;;;;;;8.80;2.53;;;;;;;;;;5009834;28;20046;-67
2023/03/31 00:38:57;;;;;;;7.25;2.50;;;;;;;;;;5009394;28;20854;-67
2023/03/31 00:41:26;;;;;;;6.32;2.15;;;;;;;;;;5010216;28;20091;-68
2023/03/31 00:44:08;;;;;;;11.60;2.92;;;;;;;;;;5009583;28;20510;-68
2023/03/31 00:46:40;;;;;;;8.55;2.50;;;;;;;;;;5010109;28;20554;-68
2023/03/31 00:49:15;;;;;;;5.93;2.58;;;;;;;;;;5009207;28;20106;-68
2023/03/31 00:51:42;;;;;;;9.95;2.88;;;;;;;;;;4996256;28;20055;-68
2023/03/31 00:54:10;;;;;;;10.98;2.75;;;;;;;;;;4989568;28;20133;-68
2023/03/31 00:56:43;;;;;;;9.02;2.53;;;;;;;;;;4989842;28;20050;-68
2023/03/31 00:59:12;;;;;;;9.85;2.45;;;;;;;;;;4989691;28;20054;-68
2023/03/31 01:01:41;;;;;;;11.25;2.90;;;;;;;;;;4989286;28;20058;-68
2023/03/31 01:04:09;;;;;;;4.82;2.50;;;;;;;;;;4989604;28;20052;-68
2023/03/31 01:06:45;;;;;;;9.30;3.00;;;;;;;;;;4989454;28;20062;-68
2023/03/31 01:09:13;;;;;;;9.25;2.70;;;;;;;;;;4989323;28;20046;-68
2023/03/31 01:11:41;;;;;;;7.63;3.13;;;;;;;;;;4989522;28;20054;-68
2023/03/31 01:14:09;;;;;;;10.32;2.60;;;;;;;;;;4989475;28;20337;-68
2023/03/31 01:16:38;;;;;;;6.20;3.30;;;;;;;;;;4989400;28;20136;-68
2023/03/31 01:19:11;;;;;;;8.55;2.35;;;;;;;;;;4989420;28;20512;-68
2023/03/31 01:22:12;;;;;;;12.75;2.92;;;;;;;;;;5008093;28;20057;-67
2023/03/31 01:25:07;;;;;;;10.43;2.85;;;;;;;;;;5008675;28;20129;-68
2023/03/31 01:27:52;;;;;;;9.77;2.58;;;;;;;;;;5008181;28;20140;-68
2023/03/31 01:30:48;;;;;;;14.88;2.92;;;;;;;;;;5008882;28;20085;-68
2023/03/31 01:33:48;;;;;;;12.95;3.15;;;;;;;;;;5008874;28;20123;-68
2023/03/31 01:36:39;;;;;;;6.70;2.05;;;;;;;;;;5009071;28;20125;-68
2023/03/31 01:39:41;;;;;;;9.05;2.20;;;;;;;;;;5008615;28;20127;-68
2023/03/31 01:42:17;;;;;;;9.82;1.92;;;;;;;;;;5040619;28;20042;-67
2023/03/31 01:44:46;;;;;;;10.68;2.15;;;;;;;;;;5008651;28;20093;-68
2023/03/31 01:47:21;;;;;;;6.40;1.98;;;;;;;;;;5008646;28;20132;-68
2023/03/31 01:49:56;;;;;;;8.82;1.92;;;;;;;;;;5007970;28;20186;-67
2023/03/31 01:52:26;;;;;;;7.47;1.80;;;;;;;;;;5008461;28;20132;-67
2023/03/31 01:55:00;;;;;;;8.00;1.55;;;;;;;;;;5008702;28;20089;-67
2023/03/31 01:57:34;;;;;;;6.50;2.00;;;;;;;;;;5008001;28;20081;-67
2023/03/31 02:00:06;;;;;;;5.53;2.78;;;;;;;;;;5008454;28;20078;-67
2023/03/31 02:02:37;;;;;;;3.60;1.50;;;;;;;;;;5008610;28;20057;-68
2023/03/31 02:05:09;;;;;;;8.38;1.40;;;;;;;;;;5008328;28;20287;-68
2023/03/31 02:07:41;;;;;;;2.85;1.20;;;;;;;;;;5007982;28;20046;-67
2023/03/31 02:10:11;;;;;;;5.32;1.83;;;;;;;;;;5008227;28;20061;-68
2023/03/31 02:12:42;;;;;;;4.13;1.70;;;;;;;;;;5008145;28;20054;-67
2023/03/31 02:15:14;;;;;;;5.60;1.30;;;;;;;;;;5008019;28;20042;-68
2023/03/31 02:17:45;;;;;;;7.53;1.50;;;;;;;;;;5007692;28;20137;-68
2023/03/31 02:20:15;;;;;;;5.35;1.20;;;;;;;;;;5008195;28;20495;-68
2023/03/31 02:22:46;;;;;;;3.90;1.08;;;;;;;;;;5006919;28;20103;-68
2023/03/31 02:25:17;;;;;;;7.10;1.38;;;;;;;;;;5007480;28;20046;-67
2023/03/31 02:27:49;;;;;;;6.00;1.38;;;;;;;;;;5007892;28;20086;-68
2023/03/31 02:30:16;;;;;;;4.88;1.60;;;;;;;;;;5007749;28;20321;-67
2023/03/31 02:32:45;;;;;;;6.45;1.20;;;;;;;;;;5008024;28;20085;-67
2023/03/31 02:35:15;;;;;;;7.07;1.27;;;;;;;;;;5007744;28;20050;-67
2023/03/31 02:37:43;;;;;;;3.63;1.20;;;;;;;;;;5007477;28;20085;-68
2023/03/31 02:40:15;;;;;;;3.75;1.17;;;;;;;;;;5007966;28;20534;-68
2023/03/31 02:42:42;;;;;;;3.15;1.17;;;;;;;;;;5007438;28;20058;-68
2023/03/31 02:45:38;;;;;;;7.80;1.30;;;;;;;;;;5007730;28;20511;-68
2023/03/31 02:48:06;;;;;;;7.35;1.50;;;;;;;;;;5007400;28;20046;-68
2023/03/31 02:50:49;;;;;;;6.10;1.50;;;;;;;;;;5007607;28;20058;-68
2023/03/31 02:53:23;;;;;;;5.30;1.50;;;;;;;;;;5007117;28;20081;-68
2023/03/31 02:56:06;;;;;;;3.50;1.20;;;;;;;;;;5007555;28;20092;-68
2023/03/31 02:59:03;;;;;;;8.30;1.50;;;;;;;;;;5007842;28;20539;-68
2023/03/31 03:01:49;;;;;;;2.97;1.20;;;;;;;;;;5007507;28;20046;-67
2023/03/31 03:04:34;;;;;;;3.85;1.38;;;;;;;;;;5007609;28;20054;-67
2023/03/31 03:07:08;;;;;;;4.07;1.25;;;;;;;;;;5007370;28;20096;-68
2023/03/31 03:09:47;;;;;;;5.28;1.25;;;;;;;;;;5007534;28;20041;-67
2023/03/31 03:12:18;;;;;;;6.65;1.10;;;;;;;;;;5007408;28;20488;-68
2023/03/31 03:14:51;;;;;;;5.03;1.90;;;;;;;;;;5007685;28;20081;-68
2023/03/31 03:17:24;;;;;;;5.43;1.27;;;;;;;;;;5006670;28;20049;-68
2023/03/31 03:19:54;;;;;;;5.22;1.48;;;;;;;;;;5006350;28;20300;-67
2023/03/31 03:22:21;;;;;;;6.80;1.33;;;;;;;;;;5007133;28;20567;-68
2023/03/31 03:24:48;;;;;;;6.80;1.38;;;;;;;;;;5007214;28;20073;-67
2023/03/31 03:27:15;;;;;;;8.23;1.77;;;;;;;;;;5007238;28;20061;-68
2023/03/31 03:29:42;;;;;;;4.47;1.13;;;;;;;;;;5007138;28;20046;-67
2023/03/31 03:32:09;;;;;;;6.47;1.27;;;;;;;;;;5007349;28;20556;-67
2023/03/31 03:34:37;;;;;;;4.68;1.30;;;;;;;;;;5007218;28;20081;-67
2023/03/31 03:37:04;;;;;;;7.38;1.85;;;;;;;;;;5007166;28;20049;-67
2023/03/31 03:39:31;;;;;;;5.75;1.48;;;;;;;;;;5007198;28;20551;-68
2023/03/31 03:41:58;;;;;;;7.70;1.77;;;;;;;;;;5007451;28;20461;-68
2023/03/31 03:44:25;;;;;;;6.43;1.50;;;;;;;;;;5006743;28;20472;-67
2023/03/31 03:46:52;;;;;;;6.28;1.50;;;;;;;;;;5006812;28;20049;-68
2023/03/31 03:49:19;;;;;;;6.40;1.58;;;;;;;;;;5007185;28;20228;-68
2023/03/31 03:51:47;;;;;;;7.07;1.90;;;;;;;;;;5007331;28;20099;-67
2023/03/31 03:54:14;;;;;;;6.28;1.60;;;;;;;;;;5006542;28;20065;-67
2023/03/31 03:56:40;;;;;;;6.20;1.95;;;;;;;;;;5010524;28;20512;-68
2023/03/31 03:59:07;;;;;;;7.68;1.80;;;;;;;;;;5010482;28;20519;-67
2023/03/31 04:01:34;;;;;;;5.50;1.50;;;;;;;;;;5011076;28;20081;-67
2023/03/31 04:04:01;;;;;;;6.32;2.10;;;;;;;;;;5010259;28;20673;-67
2023/03/31 04:06:28;;;;;;;9.70;1.80;;;;;;;;;;5010975;28;20073;-68
2023/03/31 04:08:56;;;;;;;9.80;1.80;;;;;;;;;;5009775;28;20480;-68
2023/03/31 04:11:23;;;;;;;7.03;2.15;;;;;;;;;;5010271;28;20050;-67
2023/03/31 04:13:50;;;;;;;4.47;1.70;;;;;;;;;;5010174;28;20042;-67
2023/03/31 04:16:16;;;;;;;9.20;1.52;;;;;;;;;;5010532;28;20081;-67
2023/03/31 04:18:47;;;;;;;4.15;1.40;;;;;;;;;;5009961;28;20137;-67
2023/03/31 04:21:21;;;;;;;6.70;1.70;;;;;;;;;;5010067;28;20054;-68
2023/03/31 04:23:49;;;;;;;5.53;1.80;;;;;;;;;;5009852;28;20062;-67
2023/03/31 04:26:25;;;;;;;8.63;1.80;;;;;;;;;;5010332;28;20479;-68
2023/03/31 04:28:52;;;;;;;10.05;1.90;;;;;;;;;;5020118;22;20046;-67
2023/03/31 04:31:23;;;;;;;5.55;2.85;;;;;;;;;;5009875;28;20046;-67
2023/03/31 04:33:50;;;;;;;4.28;1.58;;;;;;;;;;5010079;28;20054;-67
2023/03/31 04:36:17;;;;;;;4.25;1.70;;;;;;;;;;5009636;28;20513;-67
2023/03/31 04:38:45;;;;;;;7.70;1.83;;;;;;;;;;5009909;28;20132;-66
2023/03/31 04:41:12;;;;;;;6.10;1.83;;;;;;;;;;5009828;28;20057;-66
2023/03/31 04:43:41;;;;;;;6.43;1.80;;;;;;;;;;5009879;28;20042;-66
2023/03/31 04:46:07;;;;;;;6.70;2.15;;;;;;;;;;5009737;28;20483;-66
2023/03/31 04:48:34;;;;;;;10.80;2.45;;;;;;;;;;5009643;28;20133;-66
2023/03/31 04:51:01;;;;;;;7.40;2.28;;;;;;;;;;5009525;28;20054;-68
2023/03/31 04:53:28;;;;;;;5.60;1.77;;;;;;;;;;5008404;28;20046;-66
2023/03/31 04:55:54;;;;;;;8.32;2.10;;;;;;;;;;5009475;28;20046;-66
2023/03/31 04:58:21;;;;;;;7.32;2.17;;;;;;;;;;5009533;28;20457;-66
2023/03/31 05:00:49;;;;;;;7.20;2.20;;;;;;;;;;5009724;28;20054;-67
2023/03/31 05:03:15;;;;;;;7.03;2.15;;;;;;;;;;5009369;28;20042;-66
2023/03/31 05:05:42;;;;;;;7.88;2.08;;;;;;;;;;5009660;28;20048;-66
2023/03/31 05:08:09;;;;;;;10.13;2.22;;;;;;;;;;5009389;28;20046;-67
2023/03/31 05:10:35;;;;;;;9.30;2.40;;;;;;;;;;5009985;28;20125;-66
2023/03/31 05:13:02;;;;;;;7.97;2.33;;;;;;;;;;5009236;28;20046;-66
2023/03/31 05:15:29;;;;;;;7.50;2.50;;;;;;;;;;5009389;28;20046;-67
2023/03/31 05:17:58;;;;;;;10.25;2.13;;;;;;;;;;5008797;28;20046;-66
2023/03/31 05:20:24;;;;;;;9.52;2.92;;;;;;;;;;5009590;28;20052;-66
2023/03/31 05:22:51;;;;;;;9.50;2.35;;;;;;;;;;5007263;28;20202;-67
2023/03/31 05:25:18;;;;;;;6.53;2.28;;;;;;;;;;5009340;28;20050;-67
2023/03/31 05:27:46;;;;;;;7.18;2.17;;;;;;;;;;5008524;28;20060;-66
2023/03/31 05:30:13;;;;;;;5.65;2.05;;;;;;;;;;5009060;28;20046;-66
2023/03/31 05:32:40;;;;;;;7.38;2.25;;;;;;;;;;5008709;28;20076;-68
2023/03/31 05:35:08;;;;;;;4.35;1.80;;;;;;;;;;5008876;28;20042;-66
2023/03/31 05:37:35;;;;;;;4.35;1.70;;;;;;;;;;5008973;28;20410;-66
2023/03/31 05:40:03;;;;;;;5.95;2.00;;;;;;;;;;5008841;28;20046;-68
2023/03/31 05:42:30;;;;;;;1.95;1.63;;;;;;;;;;5009181;28;20053;-66
2023/03/31 05:44:57;;;;;;;4.22;1.75;;;;;;;;;;5008590;28;20133;-66
2023/03/31 05:47:24;;;;;;;4.82;2.50;;;;;;;;;;5008920;28;20050;-66
2023/03/31 05:49:50;;;;;;;3.08;2.10;;;;;;;;;;5008714;28;20050;-66
2023/03/31 05:52:18;;;;;;;4.03;2.25;;;;;;;;;;5009380;28;20042;-66
2023/03/31 05:54:45;;;;;;;7.75;2.78;;;;;;;;;;5006925;28;20045;-65
2023/03/31 05:57:11;;;;;;;6.40;3.13;;;;;;;;;;5008528;28;20053;-66
2023/03/31 05:59:39;;;;;;;5.45;2.30;;;;;;;;;;5008289;28;20115;-66
2023/03/31 06:02:06;;;;;;;9.27;2.63;;;;;;;;;;5008856;28;20136;-66
2023/03/31 06:04:33;;;;;;;4.28;2.20;;;;;;;;;;5008391;28;20620;-67
2023/03/31 06:06:59;;;;;;;4.50;2.40;;;;;;;;;;5008743;28;20050;-66
2023/03/31 06:09:28;;;;;;;8.25;3.45;;;;;;;;;;5008553;28;20053;-66
2023/03/31 06:11:54;;;;;;;6.40;2.60;;;;;;;;;;5008903;28;20050;-66
2023/03/31 06:14:21;;;;;;;8.85;3.10;;;;;;;;;;5008429;28;20137;-68
2023/03/31 06:16:48;;;;;;;10.23;3.15;;;;;;;;;;5008691;28;20046;-66
2023/03/31 06:19:15;;;;;;;9.02;3.30;;;;;;;;;;5007467;28;20491;-66
2023/03/31 06:21:41;;;;;;;7.47;3.83;;;;;;;;;;5008442;28;20516;-66
2023/03/31 06:24:09;;;;;;;14.13;7.80;;;;;;;;;;5006699;28;20421;-66
2023/03/31 06:26:37;;;;;;;10.60;5.43;;;;;;;;;;5007965;28;20468;-67
2023/03/31 06:29:03;;;;;;;8.27;3.45;;;;;;;;;;5007799;28;20085;-68
2023/03/31 06:31:30;;;;;;;8.05;4.75;;;;;;;;;;5008156;28;20052;-67
2023/03/31 06:33:56;;;;;;;6.80;3.70;;;;;;;;;;5007951;28;20046;-68
2023/03/31 06:36:23;;;;;;;11.75;5.18;;;;;;;;;;5008247;28;20046;-67
2023/03/31 06:38:50;;;;;;;11.73;5.00;;;;;;;;;;5007872;28;20057;-67
2023/03/31 06:41:19;;;;;;;6.15;3.88;;;;;;;;;;5007658;28;20404;-66
2023/03/31 06:43:47;;;;;;;10.82;6.65;;;;;;;;;;5007951;28;20077;-67
2023/03/31 06:46:14;;;;;;;8.18;6.13;;;;;;;;;;5007900;28;20491;-67
2023/03/31 06:48:41;;;;;;;6.40;3.55;;;;;;;;;;5007908;28;20076;-67
2023/03/31 06:51:09;;;;;;;7.72;3.70;;;;;;;;;;5007924;28;20137;-65
2023/03/31 06:53:36;;;;;;;9.98;3.40;;;;;;;;;;5008027;28;20042;-66
2023/03/31 06:56:03;;;;;;;6.20;3.17;;;;;;;;;;5005910;28;20053;-66
2023/03/31 06:58:30;;;;;;;4.97;2.63;;;;;;;;;;5007227;28;20046;-67
2023/03/31 07:00:58;;;;;;;4.55;2.33;;;;;;;;;;5007866;28;20060;-66
2023/03/31 07:03:25;;;;;;;6.22;2.78;;;;;;;;;;5007515;28;20046;-67
2023/03/31 07:05:52;;;;;;;7.30;2.90;;;;;;;;;;5007866;28;20068;-67
2023/03/31 07:08:20;;;;;;;6.95;2.47;;;;;;;;;;5007488;28;20056;-66
2023/03/31 07:10:48;;;;;;;3.25;2.00;;;;;;;;;;5007679;28;20102;-67
2023/03/31 07:13:15;;;;;;;6.63;2.40;;;;;;;;;;5007685;28;20049;-66
2023/03/31 07:15:42;;;;;;;3.20;2.03;;;;;;;;;;5007786;28;20046;-66
2023/03/31 07:18:11;;;;;;;3.05;1.80;;;;;;;;;;5007109;28;20050;-67
2023/03/31 07:20:38;;;;;;;3.70;1.90;;;;;;;;;;5006403;28;20487;-67
2023/03/31 07:23:07;;;;;;;5.10;2.13;;;;;;;;;;5007042;28;20046;-67
2023/03/31 07:25:34;;;;;;;4.88;2.17;;;;;;;;;;5007653;28;20505;-66
2023/03/31 07:28:01;;;;;;;6.70;3.50;;;;;;;;;;5006985;28;20404;-66
2023/03/31 07:30:27;;;;;;;7.15;2.42;;;;;;;;;;5006891;28;20480;-67
2023/03/31 07:32:54;;;;;;;3.75;2.17;;;;;;;;;;5007302;28;20060;-66
2023/03/31 07:35:22;;;;;;;4.72;2.40;;;;;;;;;;5007023;28;20053;-68
2023/03/31 07:37:51;;;;;;;4.85;2.22;;;;;;;;;;5007488;28;20046;-68
2023/03/31 07:40:20;;;;;;;4.45;2.58;;;;;;;;;;5007318;28;20054;-68
2023/03/31 07:42:47;;;;;;;5.00;2.10;;;;;;;;;;5007376;28;20483;-67
2023/03/31 07:45:15;;;;;;;7.47;2.60;;;;;;;;;;5006831;28;20053;-66
2023/03/31 07:47:43;;;;;;;13.25;6.43;;;;;;;;;;5006972;28;20050;-66
2023/03/31 07:50:10;;;;;;;8.40;3.28;;;;;;;;;;5006773;28;20042;-66
2023/03/31 07:52:39;;;;;;;6.18;3.00;;;;;;;;;;5006459;28;20423;-67
2023/03/31 07:55:06;;;;;;;8.10;3.05;;;;;;;;;;5006660;28;20540;-67
2023/03/31 07:57:33;;;;;;;11.63;3.28;;;;;;;;;;5006858;28;20045;-67
2023/03/31 08:00:00;;;;;;;7.88;3.15;;;;;;;;;;5006631;28;20057;-66
2023/03/31 08:02:27;;;;;;;7.97;3.22;;;;;;;;;;5006834;28;20042;-66
2023/03/31 08:04:54;;;;;;;8.13;3.05;;;;;;;;;;5006832;28;20430;-67
2023/03/31 08:07:20;;;;;;;8.18;2.65;;;;;;;;;;5003744;28;20050;-66
2023/03/31 08:09:48;;;;;;;10.95;2.88;;;;;;;;;;5002108;28;20050;-66
2023/03/31 08:12:15;;;;;;;10.45;2.72;;;;;;;;;;5005612;28;20398;-66
2023/03/31 08:14:42;;;;;;;13.50;3.25;;;;;;;;;;4996065;28;20050;-66
2023/03/31 08:17:09;;;;;;;14.75;3.17;;;;;;;;;;4986820;28;20078;-68
2023/03/31 08:19:36;;;;;;;10.23;2.67;;;;;;;;;;4987370;28;20046;-66
2023/03/31 08:22:02;;;;;;;11.40;2.70;;;;;;;;;;4996689;28;20046;-67
2023/03/31 08:24:29;;;;;;;8.52;2.40;;;;;;;;;;5006844;28;20049;-67
2023/03/31 08:26:57;;;;;;;10.07;2.60;;;;;;;;;;5005190;28;20509;-67
2023/03/31 08:29:23;;;;;;;10.93;3.08;;;;;;;;;;5000459;28;20400;-67
2023/03/31 08:31:50;;;;;;;11.65;2.90;;;;;;;;;;4986754;28;20227;-67
2023/03/31 08:34:17;;;;;;;16.88;4.50;;;;;;;;;;4986948;28;20283;-67
2023/03/31 08:36:43;;;;;;;9.43;2.58;;;;;;;;;;4986765;28;20053;-68
2023/03/31 08:39:10;;;;;;;11.75;3.08;;;;;;;;;;4986815;28;20074;-67
2023/03/31 08:41:49;;;;;;;9.35;2.92;;;;;;;;;;4988432;28;20074;-66
2023/03/31 08:44:22;;;;;;;9.07;2.50;;;;;;;;;;4990130;28;20418;-67
2023/03/31 08:46:52;;;;;;;12.02;2.55;;;;;;;;;;4990532;28;20046;-67
2023/03/31 08:49:20;;;;;;;8.40;1.77;;;;;;;;;;4995800;28;20046;-67
2023/03/31 08:51:50;;;;;;;9.52;1.90;;;;;;;;;;4997375;28;20039;-67
2023/03/31 08:54:20;;;;;;;8.13;1.50;;;;;;;;;;4989538;28;20043;-66
2023/03/31 08:56:49;;;;;;;7.63;2.13;;;;;;;;;;4990126;28;20046;-67
2023/03/31 08:59:25;;;;;;;7.95;1.60;;;;;;;;;;4989866;28;20050;-68
2023/03/31 09:01:59;;;;;;;5.32;1.30;;;;;;;;;;4990522;28;20488;-67
2023/03/31 09:04:44;;;;;;;3.17;1.48;;;;;;;;;;4989606;28;20490;-67
2023/03/31 09:07:19;;;;;;;7.35;2.08;;;;;;;;;;4989581;28;20066;-67
2023/03/31 09:09:55;;;;;;;7.47;2.42;;;;;;;;;;4989480;28;20054;-67
2023/03/31 09:12:30;;;;;;;6.25;1.80;;;;;;;;;;4990147;28;20061;-67
2023/03/31 09:15:01;;;;;;;8.15;1.77;;;;;;;;;;4989284;28;20046;-67
2023/03/31 09:17:30;;;;;;;7.13;1.92;;;;;;;;;;4989627;28;20432;-66
2023/03/31 09:20:00;;;;;;;8.85;2.13;;;;;;;;;;4990224;28;20077;-67
2023/03/31 09:22:31;;;;;;;12.20;2.25;;;;;;;;;;4989805;28;20483;-67
2023/03/31 09:25:01;;;;;;;6.43;1.70;;;;;;;;;;4989421;28;20414;-67
2023/03/31 09:27:30;;;;;;;8.63;1.92;;;;;;;;;;4988588;28;20050;-67
2023/03/31 09:30:03;;;;;;;8.32;1.95;;;;;;;;;;4989650;28;20468;-67
2023/03/31 09:32:30;;;;;;;11.32;3.08;;;;;;;;;;4989720;28;20061;-67
2023/03/31 09:35:01;;;;;;;9.43;2.00;;;;;;;;;;4989650;28;20050;-67
2023/03/31 09:37:32;;;;;;;6.57;1.80;;;;;;;;;;4988974;28;20058;-66
2023/03/31 09:40:01;;;;;;;6.82;2.17;;;;;;;;;;5001449;28;20050;-68
2023/03/31 09:42:27;;;;;;;9.15;1.90;;;;;;;;;;5009029;28;20054;-68
2023/03/31 09:44:54;;;;;;;6.00;1.60;;;;;;;;;;5008660;28;20513;-66
2023/03/31 09:47:31;;;;;;;8.80;1.95;;;;;;;;;;5008596;28;20098;-67
2023/03/31 09:49:58;;;;;;;11.20;2.63;;;;;;;;;;4993215;28;20052;-67
2023/03/31 09:52:29;;;;;;;9.07;2.00;;;;;;;;;;4988964;28;20427;-67
2023/03/31 09:54:59;;;;;;;6.80;1.95;;;;;;;;;;4988710;28;20049;-67
2023/03/31 09:57:28;;;;;;;10.55;2.20;;;;;;;;;;4988859;28;20047;-68
2023/03/31 10:00:04;;;;;;;7.88;2.28;;;;;;;;;;4989055;28;20308;-66
2023/03/31 10:02:39;;;;;;;10.07;1.98;;;;;;;;;;4989384;28;20133;-68
2023/03/31 10:05:07;;;;;;;8.88;2.20;;;;;;;;;;4988703;28;20064;-67
2023/03/31 10:07:34;;;;;;;14.68;2.53;;;;;;;;;;4988676;28;20104;-66
2023/03/31 10:10:02;;;;;;;8.20;2.17;;;;;;;;;;4988289;28;20062;-66
2023/03/31 10:12:29;;;;;;;11.50;2.15;;;;;;;;;;4989244;28;20466;-67
2023/03/31 10:15:17;;;;;;;10.65;2.60;;;;;;;;;;4988164;28;20081;-66
2023/03/31 10:17:46;;;;;;;10.18;2.60;;;;;;;;;;4988605;28;20058;-67
2023/03/31 10:20:21;;;;;;;11.95;2.40;;;;;;;;;;4992443;28;20115;-67
2023/03/31 10:22:48;;;;;;;15.02;2.80;;;;;;;;;;5003811;28;20046;-67
2023/03/31 10:25:17;;;;;;;11.57;2.03;;;;;;;;;;5007892;28;20418;-68
2023/03/31 10:27:48;;;;;;;10.23;2.13;;;;;;;;;;5008228;28;20060;-66
2023/03/31 10:30:20;;;;;;;11.23;2.92;;;;;;;;;;4992669;22;20050;-67
2023/03/31 10:32:49;;;;;;;14.13;2.88;;;;;;;;;;4969535;28;20058;-67
2023/03/31 10:35:24;;;;;;;11.68;2.35;;;;;;;;;;4969192;28;20096;-67
2023/03/31 10:37:55;;;;;;;11.65;2.60;;;;;;;;;;4969719;28;20100;-66
2023/03/31 10:40:25;;;;;;;13.07;2.65;;;;;;;;;;4969370;28;20082;-67
2023/03/31 10:43:01;;;;;;;12.32;2.33;;;;;;;;;;4969628;28;20055;-67
2023/03/31 10:45:30;;;;;;;8.75;2.00;;;;;;;;;;4969568;28;20051;-67
2023/03/31 10:48:00;;;;;;;8.50;1.92;;;;;;;;;;4968821;28;20066;-67
2023/03/31 10:50:29;;;;;;;8.52;2.30;;;;;;;;;;4969507;28;20055;-66
2023/03/31 10:53:03;;;;;;;9.10;2.50;;;;;;;;;;4980728;28;20050;-67
2023/03/31 10:55:35;;;;;;;11.85;2.30;;;;;;;;;;4988418;28;20093;-66
2023/03/31 10:58:04;;;;;;;;;;;;;;;;;;4988773;28;20054;-67
2023/03/31 11:00:34;;;;;;;12.20;3.38;;;;;;;;;;4988241;28;19969;-67
2023/03/31 11:03:27;;;;;;;9.82;2.17;;;;;;;;;;4976300;28;20115;-67
2023/03/31 11:06:03;;;;;;;10.52;2.15;;;;;;;;;;4968786;28;20055;-66
2023/03/31 11:08:41;;;;;;;11.63;2.03;;;;;;;;;;4968831;28;20078;-67
2023/03/31 11:11:27;;;;;;;10.70;1.95;;;;;;;;;;4969404;28;20475;-68
2023/03/31 11:13:59;;;;;;;12.05;2.38;;;;;;;;;;4968817;28;20072;-66
2023/03/31 11:16:33;;;;;;;11.90;3.33;;;;;;;;;;4969246;28;20043;-67
2023/03/31 11:19:16;;;;;;;12.63;2.40;;;;;;;;;;4968624;28;20082;-66
2023/03/31 11:21:56;;;;;;;13.00;2.72;;;;;;;;;;4969172;28;20487;-67
2023/03/31 11:24:37;;;;;;;11.95;2.03;;;;;;;;;;4968603;28;20061;-66
2023/03/31 11:27:20;;;;;;;10.60;1.67;;;;;;;;;;4968958;28;20108;-65
2023/03/31 11:29:54;;;;;;;12.27;2.38;;;;;;;;;;4968457;28;20503;-67
2023/03/31 11:32:35;;;;;;;7.32;1.92;;;;;;;;;;4969207;28;20043;-66
2023/03/31 11:35:21;;;;;;;9.27;2.10;;;;;;;;;;4968385;28;20058;-67
2023/03/31 11:38:00;;;;;;;14.68;2.28;;;;;;;;;;4968974;28;20112;-67
2023/03/31 11:40:42;;;;;;;11.88;2.05;;;;;;;;;;4968640;28;20135;-67
2023/03/31 11:43:16;;;;;;;5.85;1.42;;;;;;;;;;4969056;28;20051;-67
2023/03/31 11:45:49;;;;;;;5.78;1.38;;;;;;;;;;4968198;28;20070;-65
2023/03/31 11:48:21;;;;;;;6.55;1.83;;;;;;;;;;4970007;28;20192;-66
2023/03/31 11:50:51;;;;;;;6.03;1.60;;;;;;;;;;4987560;28;20541;-67
2023/03/31 11:53:20;;;;;;;8.52;2.10;;;;;;;;;;4988096;28;20572;-67
2023/03/31 11:55:51;;;;;;;6.32;1.20;;;;;;;;;;4987365;28;20054;-66
2023/03/31 11:58:22;;;;;;;9.40;1.67;;;;;;;;;;4987834;28;20465;-66
2023/03/31 12:00:53;;;;;;;6.20;1.45;;;;;;;;;;4988146;28;20544;-66
2023/03/31 12:03:22;;;;;;;7.05;2.38;;;;;;;;;;4987644;28;20483;-67
2023/03/31 12:05:53;;;;;;;5.35;1.75;;;;;;;;;;4987745;28;20111;-67
2023/03/31 12:08:29;;;;;;;5.05;1.35;;;;;;;;;;4987835;28;20051;-67
2023/03/31 12:11:01;;;;;;;5.88;1.40;;;;;;;;;;4988051;28;20057;-67
2023/03/31 12:13:40;;;;;;;4.95;1.40;;;;;;;;;;4987434;28;20050;-67
2023/03/31 12:16:14;;;;;;;8.13;1.45;;;;;;;;;;4988370;28;20438;-66
2023/03/31 12:18:45;;;;;;;5.47;1.33;;;;;;;;;;4990487;28;20081;-66
2023/03/31 12:21:13;;;;;;;4.35;1.10;;;;;;;;;;4991346;28;20050;-66
2023/03/31 12:23:44;;;;;;;6.20;1.70;;;;;;;;;;4990334;28;20052;-66
2023/03/31 12:26:23;;;;;;;8.05;1.70;;;;;;;;;;4990295;28;20077;-65
2023/03/31 12:28:54;;;;;;;5.00;1.13;;;;;;;;;;4989808;28;20484;-67
2023/03/31 12:31:24;;;;;;;3.85;1.20;;;;;;;;;;4990869;28;20057;-66
2023/03/31 12:33:56;;;;;;;5.78;0.90;;;;;;;;;;4990044;28;20415;-67
2023/03/31 12:36:36;;;;;;;3.67;1.15;;;;;;;;;;4991069;28;20081;-66
2023/03/31 12:39:16;;;;;;;5.18;1.30;;;;;;;;;;4990469;28;20047;-67
2023/03/31 12:41:53;;;;;;;8.82;1.30;;;;;;;;;;4990667;28;20096;-67
2023/03/31 12:44:35;;;;;;;4.30;1.10;;;;;;;;;;4990646;28;20050;-66
2023/03/31 12:47:16;;;;;;;3.00;1.30;;;;;;;;;;4991004;28;20054;-67
2023/03/31 12:49:52;;;;;;;4.22;1.40;;;;;;;;;;4978424;28;20150;-66
2023/03/31 12:52:25;;;;;;;3.88;1.00;;;;;;;;;;4970870;28;20051;-66
2023/03/31 12:55:21;;;;;;;8.13;1.70;;;;;;;;;;4970844;28;20138;-67
2023/03/31 12:57:48;;;;;;;6.15;1.77;;;;;;;;;;4970981;28;20093;-67
2023/03/31 13:00:23;;;;;;;5.82;1.10;;;;;;;;;;4970590;28;20495;-67
2023/03/31 13:02:51;;;;;;;5.45;1.50;;;;;;;;;;4971291;28;20466;-68
2023/03/31 13:05:47;;;;;;;5.57;1.38;;;;;;;;;;4971047;28;20054;-67
2023/03/31 13:08:47;;;;;;;5.88;1.85;;;;;;;;;;4970852;28;20070;-67
2023/03/31 13:11:15;;;;;;;6.03;1.40;;;;;;;;;;4970778;28;20047;-67
2023/03/31 13:13:46;;;;;;;9.35;2.03;;;;;;;;;;4971045;28;20500;-67
2023/03/31 13:16:20;;;;;;;4.43;1.58;;;;;;;;;;4970808;28;20137;-67
2023/03/31 13:18:52;;;;;;;6.65;1.50;;;;;;;;;;4968866;28;20058;-66
2023/03/31 13:21:19;;;;;;;4.05;0.93;;;;;;;;;;4970111;28;20096;-66
2023/03/31 13:23:46;;;;;;;3.13;1.02;;;;;;;;;;4970864;28;20051;-68
2023/03/31 13:26:39;;;;;;;4.95;1.30;;;;;;;;;;4971427;28;20082;-67
2023/03/31 13:29:21;;;;;;;3.78;0.70;;;;;;;;;;4985605;28;20065;-66
2023/03/31 13:32:20;;;;;;;3.30;1.10;;;;;;;;;;4989588;28;20462;-66
2023/03/31 13:34:52;;;;;;;2.38;1.20;;;;;;;;;;4989728;28;20050;-67
2023/03/31 13:37:37;;;;;;;2.70;0.98;;;;;;;;;;4989538;28;20105;-68
2023/03/31 13:40:33;;;;;;;2.80;0.98;;;;;;;;;;4989700;28;20481;-68
2023/03/31 13:43:26;;;;;;;2.50;0.75;;;;;;;;;;4982958;28;20055;-67
2023/03/31 13:46:03;;;;;;;3.20;1.00;;;;;;;;;;4990094;28;20042;-67
2023/03/31 13:48:38;;;;;;;2.03;0.70;;;;;;;;;;4990154;28;20080;-68
2023/03/31 13:51:35;;;;;;;5.18;1.08;;;;;;;;;;4978855;28;20058;-68
2023/03/31 13:54:30;;;;;;;3.35;0.77;;;;;;;;;;4970529;28;20110;-68
2023/03/31 13:57:25;;;;;;;5.15;0.85;;;;;;;;;;4970084;28;20097;-67
2023/03/31 14:00:16;;;;;;;4.20;1.05;;;;;;;;;;4969744;28;20456;-67
2023/03/31 14:02:53;;;;;;;4.65;1.02;;;;;;;;;;4970019;28;20051;-66
2023/03/31 14:05:29;;;;;;;4.72;1.85;;;;;;;;;;4969719;28;20051;-67
2023/03/31 14:07:57;;;;;;;5.03;1.25;;;;;;;;;;4970223;28;20526;-67
2023/03/31 14:10:28;;;;;;;5.32;1.50;;;;;;;;;;4969817;28;20458;-67
2023/03/31 14:13:09;;;;;;;5.05;1.42;;;;;;;;;;4969856;28;20062;-67
2023/03/31 14:15:40;;;;;;;6.75;1.30;;;;;;;;;;4969429;28;20054;-67
2023/03/31 14:18:08;;;;;;;5.90;1.60;;;;;;;;;;4969932;28;20047;-67
2023/03/31 14:20:43;;;;;;;6.30;1.33;;;;;;;;;;4969278;28;20476;-68
2023/03/31 14:23:23;;;;;;;7.28;1.77;;;;;;;;;;4951136;29;20572;-68
2023/03/31 14:25:57;;;;;;;4.68;1.23;;;;;;;;;;4950648;28;20101;-69
2023/03/31 14:28:53;;;;;;;5.68;1.20;;;;;;;;;;4950876;28;20055;-69
2023/03/31 14:31:34;;;;;;;8.13;1.52;;;;;;;;;;4950525;29;20138;-69
2023/03/31 14:34:34;;;;;;;8.35;1.73;;;;;;;;;;4950364;29;20058;-69
2023/03/31 14:37:03;;;;;;;5.43;1.38;;;;;;;;;;4950313;28;20055;-69
2023/03/31 14:39:33;;;;;;;6.93;1.20;;;;;;;;;;4950000;28;20098;-72
2023/03/31 14:42:02;;;;;;;6.10;1.52;;;;;;;;;;4950737;28;20485;-71
2023/03/31 14:44:29;;;;;;;7.22;1.40;;;;;;;;;;4950776;28;20078;-71
2023/03/31 14:46:58;;;;;;;3.42;1.00;;;;;;;;;;4950037;28;20078;-72
2023/03/31 14:49:27;;;;;;;4.40;1.08;;;;;;;;;;4950782;29;20055;-71
2023/03/31 14:51:58;;;;;;;5.95;1.70;;;;;;;;;;4950444;28;20319;-70
2023/03/31 14:54:36;;;;;;;4.65;1.20;;;;;;;;;;4989561;28;20400;-68
2023/03/31 14:57:04;;;;;;;5.03;1.63;;;;;;;;;;4988680;28;20476;-68
2023/03/31 14:59:33;;;;;;;14.88;5.63;;;;;;;;;;4988592;28;20059;-67
2023/03/31 15:02:04;;;;;;;4.50;1.08;;;;;;;;;;4989281;28;20525;-68
2023/03/31 15:04:43;;;;;;;19.80;9.65;;;;;;;;;;4988346;28;20046;-68
2023/03/31 15:07:10;;;;;;;2.67;1.23;;;;;;;;;;4988482;28;20042;-67
2023/03/31 15:09:38;;;;;;;5.38;1.02;;;;;;;;;;4988136;28;20046;-68